createdAt,value
2023-01-01T00:00:00.621Z,986
2023-01-01T00:01:00.676Z,986.4
2023-01-01T00:02:00.655Z,986.2
2023-01-01T00:03:00.600Z,986.2
2023-01-01T00:04:00.636Z,986.7
2023-01-01T00:05:00.603Z,986.7
2023-01-01T00:06:00.609Z,986.9
2023-01-01T00:07:00.584Z,987.1
2023-01-01T00:08:04.602Z,987.1
2023-01-01T00:09:00.588Z,987.1
2023-01-01T00:10:00.660Z,987.3
2023-01-01T00:11:00.627Z,987.3
2023-01-01T00:12:00.591Z,987.5
2023-01-01T00:13:00.643Z,987.3
2023-01-01T00:14:00.627Z,987.3
2023-01-01T00:15:00.596Z,987.1
2023-01-01T00:16:00.641Z,987.1
2023-01-01T00:17:00.647Z,987.1
2023-01-01T00:18:00.624Z,986.7
2023-01-01T00:19:00.634Z,986.4
2023-01-01T00:20:00.616Z,986.4
2023-01-01T00:21:00.620Z,986.4
2023-01-01T00:22:05.662Z,986.4
2023-01-01T00:23:00.618Z,986.4
2023-01-01T00:24:00.619Z,986.7
2023-01-01T00:25:00.618Z,986.4
2023-01-01T00:26:00.632Z,986.4
2023-01-01T00:27:00.610Z,986.4
2023-01-01T00:28:00.619Z,986.7
2023-01-01T00:29:00.618Z,986.7
2023-01-01T00:30:00.618Z,986.7
2023-01-01T00:31:00.633Z,986.4
2023-01-01T00:32:00.685Z,986.2
2023-01-01T00:33:00.621Z,986.2
2023-01-01T00:34:00.626Z,986.2
2023-01-01T00:35:00.610Z,986.2
2023-01-01T00:36:00.630Z,986.2
2023-01-01T00:37:00.847Z,986.2
2023-01-01T00:38:00.613Z,986.2
2023-01-01T00:39:00.615Z,986.2
2023-01-01T00:40:00.663Z,986.2
2023-01-01T00:41:00.636Z,986
2023-01-01T00:42:00.618Z,985.8
2023-01-01T00:43:00.663Z,986.2
2023-01-01T00:44:00.628Z,986.2
2023-01-01T00:45:00.626Z,986.2
2023-01-01T00:46:00.687Z,986.2
2023-01-01T00:47:00.637Z,985.8
2023-01-01T00:48:00.642Z,985.8
2023-01-01T00:49:00.650Z,985.8
2023-01-01T00:50:00.645Z,985.8
2023-01-01T00:51:00.650Z,986
2023-01-01T00:52:00.635Z,986.2
2023-01-01T00:53:00.669Z,986
2023-01-01T00:54:00.628Z,986
2023-01-01T00:55:00.668Z,986
2023-01-01T00:56:00.685Z,986.2
2023-01-01T00:57:00.649Z,986.2
2023-01-01T00:58:00.666Z,986.2
2023-01-01T00:59:01.975Z,986
2023-01-01T01:00:00.645Z,986
2023-01-01T01:01:00.811Z,985.8
2023-01-01T01:02:00.841Z,985.8
2023-01-01T01:03:00.738Z,985.8
2023-01-01T01:04:00.637Z,985.8
2023-01-01T01:05:00.658Z,985.8
2023-01-01T01:06:00.679Z,985.8
2023-01-01T01:07:00.648Z,985.8
2023-01-01T01:08:00.649Z,985.8
2023-01-01T01:09:00.667Z,986
2023-01-01T01:10:00.656Z,985.8
2023-01-01T01:11:00.667Z,985.8
2023-01-01T01:12:18.492Z,985.8
2023-01-01T01:13:00.685Z,985.8
2023-01-01T01:14:00.682Z,985.8
2023-01-01T01:15:00.659Z,986
2023-01-01T01:16:00.680Z,986
2023-01-01T01:17:00.725Z,985.8
2023-01-01T01:18:00.656Z,986
2023-01-01T01:19:00.727Z,986.2
2023-01-01T01:20:00.687Z,986
2023-01-01T01:21:00.681Z,985.8
2023-01-01T01:22:00.694Z,985.8
2023-01-01T01:23:00.677Z,985.8
2023-01-01T01:24:00.689Z,985.8
2023-01-01T01:25:00.693Z,985.8
2023-01-01T01:26:00.687Z,985.6
2023-01-01T01:27:00.690Z,985.4
2023-01-01T01:28:00.682Z,985.8
2023-01-01T01:29:00.692Z,985.8
2023-01-01T01:30:00.695Z,985.6
2023-01-01T01:31:00.718Z,985.6
2023-01-01T01:32:00.669Z,985.8
2023-01-01T01:33:00.681Z,985.8
2023-01-01T01:34:00.706Z,985.8
2023-01-01T01:35:00.693Z,985.6
2023-01-01T01:36:00.676Z,985.6
2023-01-01T01:37:00.701Z,985.8
2023-01-01T01:38:00.684Z,985.8
2023-01-01T01:39:00.732Z,985.8
2023-01-01T01:40:00.717Z,985.8
2023-01-01T01:41:00.712Z,985.8
2023-01-01T01:42:00.684Z,985.8
2023-01-01T01:43:00.692Z,985.6
2023-01-01T01:44:00.701Z,985.8
2023-01-01T01:45:00.718Z,985.6
2023-01-01T01:46:00.832Z,985.8
2023-01-01T01:47:00.684Z,985.8
2023-01-01T01:48:00.695Z,985.8
2023-01-01T01:49:00.724Z,985.8
2023-01-01T01:50:00.706Z,985.8
2023-01-01T01:51:00.707Z,985.6
2023-01-01T01:52:00.706Z,985.8
2023-01-01T01:53:00.691Z,985.6
2023-01-01T01:54:00.720Z,985.6
2023-01-01T01:55:00.763Z,985.4
2023-01-01T01:56:00.709Z,985.4
2023-01-01T01:57:00.693Z,985.1
2023-01-01T01:58:00.699Z,985.1
2023-01-01T01:59:00.743Z,985.4
2023-01-01T02:00:06.807Z,985.1
2023-01-01T02:01:00.972Z,985.4
2023-01-01T02:02:00.857Z,985.1
2023-01-01T02:03:00.760Z,985.4
2023-01-01T02:04:00.758Z,985.1
2023-01-01T02:05:00.717Z,984.9
2023-01-01T02:06:00.737Z,984.9
2023-01-01T02:07:00.715Z,984.9
2023-01-01T02:08:00.744Z,984.9
2023-01-01T02:09:00.735Z,984.9
2023-01-01T02:10:00.724Z,984.9
2023-01-01T02:11:00.735Z,984.9
2023-01-01T02:12:00.737Z,984.9
2023-01-01T02:13:00.727Z,984.5
2023-01-01T02:14:00.735Z,984.5
2023-01-01T02:15:00.724Z,984.9
2023-01-01T02:16:00.744Z,985.1
2023-01-01T02:17:00.723Z,984.9
2023-01-01T02:18:00.728Z,984.5
2023-01-01T02:19:00.747Z,984.9
2023-01-01T02:20:00.726Z,985.1
2023-01-01T02:21:00.721Z,984.9
2023-01-01T02:22:00.721Z,984.9
2023-01-01T02:23:04.401Z,984.9
2023-01-01T02:24:00.741Z,984.9
2023-01-01T02:25:00.745Z,984.9
2023-01-01T02:26:00.749Z,984.9
2023-01-01T02:27:00.732Z,985.1
2023-01-01T02:28:00.746Z,985.4
2023-01-01T02:29:00.753Z,985.1
2023-01-01T02:30:00.718Z,984.9
2023-01-01T02:31:00.730Z,985.1
2023-01-01T02:32:00.684Z,985.4
2023-01-01T02:33:00.629Z,985.1
2023-01-01T02:34:00.642Z,985.1
2023-01-01T02:35:00.592Z,985.4
2023-01-01T02:36:00.549Z,985.4
2023-01-01T02:37:00.548Z,985.4
2023-01-01T02:38:00.510Z,985.4
2023-01-01T02:39:00.486Z,985.4
2023-01-01T02:40:00.425Z,985.4
2023-01-01T02:41:00.418Z,985.4
2023-01-01T02:42:00.402Z,985.4
2023-01-01T02:43:00.366Z,985.6
2023-01-01T02:45:00.378Z,985.6
2023-01-01T02:46:00.430Z,985.6
2023-01-01T02:47:00.381Z,986
2023-01-01T02:48:00.383Z,986
2023-01-01T02:49:04.704Z,985.8
2023-01-01T02:50:00.376Z,986
2023-01-01T02:51:00.396Z,985.8
2023-01-01T02:52:00.393Z,986
2023-01-01T02:53:00.372Z,986
2023-01-01T02:54:00.379Z,985.8
2023-01-01T02:55:00.382Z,985.8
2023-01-01T02:56:00.408Z,985.8
2023-01-01T02:57:00.398Z,985.8
2023-01-01T02:58:00.400Z,985.8
2023-01-01T02:59:00.386Z,985.8
2023-01-01T03:00:00.394Z,985.8
2023-01-01T03:01:01.446Z,985.8
2023-01-01T03:02:01.530Z,985.8
2023-01-01T03:03:01.583Z,985.8
2023-01-01T03:04:01.398Z,985.8
2023-01-01T03:05:01.369Z,985.6
2023-01-01T03:06:01.387Z,985.8
2023-01-01T03:07:01.373Z,985.6
2023-01-01T03:08:01.397Z,985.4
2023-01-01T03:09:01.382Z,985.4
2023-01-01T03:10:01.390Z,985.4
2023-01-01T03:11:01.399Z,985.4
2023-01-01T03:12:01.408Z,985.1
2023-01-01T03:13:01.439Z,985.4
2023-01-01T03:14:01.381Z,985.4
2023-01-01T03:15:01.397Z,985.4
2023-01-01T03:16:01.518Z,984.9
2023-01-01T03:17:01.389Z,984.9
2023-01-01T03:18:01.403Z,984.7
2023-01-01T03:19:01.382Z,984.7
2023-01-01T03:20:01.415Z,984.5
2023-01-01T03:21:01.415Z,984.5
2023-01-01T03:22:01.393Z,984.7
2023-01-01T03:23:01.407Z,984.5
2023-01-01T03:24:01.406Z,984.5
2023-01-01T03:25:01.401Z,984.5
2023-01-01T03:26:01.429Z,984.5
2023-01-01T03:27:01.424Z,984.5
2023-01-01T03:28:01.396Z,984.5
2023-01-01T03:29:01.403Z,984.5
2023-01-01T03:30:01.485Z,984.5
2023-01-01T03:31:01.500Z,984.5
2023-01-01T03:32:01.452Z,984.3
2023-01-01T03:33:01.417Z,984.5
2023-01-01T03:34:01.404Z,984.5
2023-01-01T03:35:01.425Z,984
2023-01-01T03:36:01.462Z,984.5
2023-01-01T03:37:01.420Z,984.5
2023-01-01T03:38:01.408Z,984.5
2023-01-01T03:39:01.417Z,984.5
2023-01-01T03:40:01.439Z,984.5
2023-01-01T03:41:01.430Z,984.5
2023-01-01T03:42:01.472Z,984.5
2023-01-01T03:43:01.413Z,984.7
2023-01-01T03:44:01.441Z,984.5
2023-01-01T03:45:01.438Z,984.7
2023-01-01T03:46:01.415Z,984.7
2023-01-01T03:47:01.523Z,984.7
2023-01-01T03:48:01.446Z,984.5
2023-01-01T03:49:04.191Z,984.5
2023-01-01T03:50:01.462Z,984.7
2023-01-01T03:51:01.433Z,984.7
2023-01-01T03:52:01.425Z,984.7
2023-01-01T03:53:01.443Z,984.7
2023-01-01T03:54:01.441Z,984.7
2023-01-01T03:55:01.456Z,984.7
2023-01-01T03:56:01.449Z,984.5
2023-01-01T03:57:01.455Z,984.7
2023-01-01T03:58:01.457Z,984.5
2023-01-01T03:59:01.451Z,984.5
2023-01-01T04:00:01.470Z,984.3
2023-01-01T04:01:01.600Z,984.5
2023-01-01T04:02:01.551Z,984.5
2023-01-01T04:03:01.508Z,984.5
2023-01-01T04:04:01.449Z,984.5
2023-01-01T04:05:01.463Z,984.7
2023-01-01T04:06:01.455Z,984.7
2023-01-01T04:07:14.241Z,984.5
2023-01-01T04:08:01.452Z,984.7
2023-01-01T04:09:01.446Z,984.9
2023-01-01T04:10:01.492Z,984.7
2023-01-01T04:11:01.450Z,984.9
2023-01-01T04:12:01.465Z,984.9
2023-01-01T04:13:01.446Z,984.7
2023-01-01T04:14:01.466Z,985.4
2023-01-01T04:15:01.471Z,984.9
2023-01-01T04:16:01.531Z,984.9
2023-01-01T04:17:01.479Z,984.9
2023-01-01T04:18:01.452Z,985.1
2023-01-01T04:19:01.451Z,985.1
2023-01-01T04:20:01.496Z,985.4
2023-01-01T04:21:01.473Z,985.4
2023-01-01T04:22:01.465Z,985.4
2023-01-01T04:23:01.458Z,985.4
2023-01-01T04:24:01.462Z,985.6
2023-01-01T04:25:01.521Z,985.4
2023-01-01T04:26:01.485Z,985.6
2023-01-01T04:27:01.484Z,985.8
2023-01-01T04:28:01.463Z,985.6
2023-01-01T04:29:01.481Z,985.8
2023-01-01T04:30:01.495Z,985.6
2023-01-01T04:31:01.478Z,985.6
2023-01-01T04:32:01.483Z,985.4
2023-01-01T04:33:01.464Z,985.1
2023-01-01T04:34:01.468Z,985.4
2023-01-01T04:35:01.501Z,985.4
2023-01-01T04:36:01.475Z,985.4
2023-01-01T04:37:01.490Z,985.4
2023-01-01T04:38:01.477Z,985.4
2023-01-01T04:39:01.511Z,985.6
2023-01-01T04:40:01.508Z,985.6
2023-01-01T04:41:01.503Z,985.8
2023-01-01T04:42:01.503Z,985.6
2023-01-01T04:43:01.511Z,985.4
2023-01-01T04:44:01.482Z,985.4
2023-01-01T04:45:01.520Z,985.4
2023-01-01T04:46:01.547Z,985.4
2023-01-01T04:47:01.505Z,985.8
2023-01-01T04:48:01.502Z,985.8
2023-01-01T04:49:01.486Z,985.4
2023-01-01T04:50:01.583Z,985.8
2023-01-01T04:51:01.502Z,985.6
2023-01-01T04:52:01.512Z,985.6
2023-01-01T04:53:01.517Z,985.4
2023-01-01T04:54:01.505Z,985.4
2023-01-01T04:55:01.541Z,985.4
2023-01-01T04:56:01.518Z,985.1
2023-01-01T04:57:01.491Z,985.4
2023-01-01T04:58:01.512Z,985.4
2023-01-01T04:59:01.501Z,985.4
2023-01-01T05:00:01.637Z,985.4
2023-01-01T05:01:01.561Z,985.4
2023-01-01T05:02:01.697Z,985.4
2023-01-01T05:03:01.573Z,985.4
2023-01-01T05:04:01.515Z,985.4
2023-01-01T05:05:01.564Z,985.6
2023-01-01T05:06:01.558Z,985.6
2023-01-01T05:07:01.519Z,985.4
2023-01-01T05:08:01.507Z,985.4
2023-01-01T05:09:01.510Z,985.8
2023-01-01T05:10:01.571Z,985.8
2023-01-01T05:11:01.512Z,985.4
2023-01-01T05:12:01.514Z,985.4
2023-01-01T05:13:01.535Z,985.6
2023-01-01T05:14:01.528Z,985.8
2023-01-01T05:15:01.534Z,985.6
2023-01-01T05:16:01.612Z,985.4
2023-01-01T05:17:01.551Z,985.8
2023-01-01T05:18:01.532Z,985.8
2023-01-01T05:19:01.544Z,985.8
2023-01-01T05:20:01.603Z,985.8
2023-01-01T05:21:01.510Z,985.8
2023-01-01T05:22:06.903Z,985.4
2023-01-01T05:23:01.514Z,985.8
2023-01-01T05:24:01.533Z,985.8
2023-01-01T05:25:01.540Z,985.8
2023-01-01T05:26:01.520Z,986
2023-01-01T05:27:01.522Z,985.8
2023-01-01T05:28:01.541Z,986.2
2023-01-01T05:29:01.698Z,986.2
2023-01-01T05:30:01.571Z,986.2
2023-01-01T05:31:01.531Z,986.2
2023-01-01T05:32:01.595Z,985.8
2023-01-01T05:33:01.530Z,985.6
2023-01-01T05:35:01.559Z,985.8
2023-01-01T05:36:01.612Z,985.8
2023-01-01T05:37:01.549Z,986
2023-01-01T05:38:01.569Z,986
2023-01-01T05:39:01.610Z,985.8
2023-01-01T05:40:01.600Z,985.4
2023-01-01T05:41:01.544Z,985.4
2023-01-01T05:42:01.647Z,985.8
2023-01-01T05:43:01.724Z,986.2
2023-01-01T05:44:01.739Z,986.2
2023-01-01T05:45:01.667Z,986.2
2023-01-01T05:46:01.731Z,986.2
2023-01-01T05:47:01.753Z,986.7
2023-01-01T05:48:01.767Z,986.2
2023-01-01T05:49:01.690Z,985.8
2023-01-01T05:51:01.786Z,985.4
2023-01-01T05:52:01.752Z,985.8
2023-01-01T05:53:01.744Z,985.8
2023-01-01T05:54:01.861Z,985.6
2023-01-01T05:55:01.751Z,985.8
2023-01-01T05:56:01.762Z,985.8
2023-01-01T05:57:01.777Z,985.8
2023-01-01T05:58:01.783Z,985.8
2023-01-01T05:59:01.773Z,985.8
2023-01-01T06:00:01.876Z,985.8
2023-01-01T06:01:01.855Z,986
2023-01-01T06:02:01.865Z,985.8
2023-01-01T06:03:01.772Z,986
2023-01-01T06:04:01.763Z,985.8
2023-01-01T06:05:01.764Z,985.6
2023-01-01T06:06:01.672Z,985.6
2023-01-01T06:07:01.647Z,985.4
2023-01-01T06:08:01.785Z,985.6
2023-01-01T06:09:01.646Z,986.2
2023-01-01T06:10:01.662Z,986
2023-01-01T06:11:01.647Z,985.8
2023-01-01T06:12:01.602Z,985.8
2023-01-01T06:13:02.006Z,985.8
2023-01-01T06:14:01.626Z,985.8
2023-01-01T06:15:01.595Z,985.8
2023-01-01T06:16:01.630Z,985.8
2023-01-01T06:17:01.622Z,985.8
2023-01-01T06:18:01.572Z,985.6
2023-01-01T06:19:01.590Z,985.8
2023-01-01T06:20:01.614Z,985.8
2023-01-01T06:21:01.578Z,985.8
2023-01-01T06:22:01.587Z,985.8
2023-01-01T06:23:01.596Z,986.2
2023-01-01T06:24:01.594Z,985.8
2023-01-01T06:25:01.601Z,986
2023-01-01T06:26:01.606Z,986.2
2023-01-01T06:27:01.581Z,986.2
2023-01-01T06:28:01.612Z,986
2023-01-01T06:29:01.594Z,986.2
2023-01-01T06:30:01.605Z,986.7
2023-01-01T06:31:01.659Z,986.2
2023-01-01T06:32:01.605Z,986.4
2023-01-01T06:33:01.592Z,987.1
2023-01-01T06:34:01.601Z,987.5
2023-01-01T06:35:01.632Z,987.5
2023-01-01T06:36:01.596Z,987.1
2023-01-01T06:37:06.732Z,988
2023-01-01T06:38:01.614Z,987.7
2023-01-01T06:39:01.611Z,987.1
2023-01-01T06:40:01.628Z,987.3
2023-01-01T06:41:01.622Z,988
2023-01-01T06:42:01.601Z,988
2023-01-01T06:43:01.597Z,987.7
2023-01-01T06:44:01.615Z,987.5
2023-01-01T06:45:01.652Z,987.7
2023-01-01T06:46:01.647Z,987.5
2023-01-01T06:47:01.617Z,987.5
2023-01-01T06:48:01.604Z,987.5
2023-01-01T06:49:01.649Z,987.3
2023-01-01T06:50:01.644Z,987.5
2023-01-01T06:51:01.635Z,987.5
2023-01-01T06:52:01.607Z,987.7
2023-01-01T06:53:01.622Z,988.4
2023-01-01T06:54:01.660Z,988.4
2023-01-01T06:55:01.639Z,988.8
2023-01-01T06:56:01.618Z,988.4
2023-01-01T06:57:01.620Z,988.6
2023-01-01T06:58:01.626Z,988.4
2023-01-01T06:59:01.653Z,988
2023-01-01T07:00:01.694Z,988.2
2023-01-01T07:01:07.850Z,988.4
2023-01-01T07:02:01.754Z,988.4
2023-01-01T07:03:01.834Z,988.4
2023-01-01T07:04:01.640Z,988.4
2023-01-01T07:05:01.654Z,988.6
2023-01-01T07:06:01.632Z,988.4
2023-01-01T07:07:01.631Z,988
2023-01-01T07:08:01.630Z,988
2023-01-01T07:09:01.640Z,988.4
2023-01-01T07:10:01.657Z,988.4
2023-01-01T07:11:01.655Z,988.4
2023-01-01T07:12:01.630Z,988.4
2023-01-01T07:13:01.643Z,988.4
2023-01-01T07:14:01.628Z,988
2023-01-01T07:15:01.656Z,987.7
2023-01-01T07:16:05.401Z,987.5
2023-01-01T07:17:01.645Z,987.7
2023-01-01T07:18:01.639Z,987.5
2023-01-01T07:19:01.686Z,987.7
2023-01-01T07:20:01.686Z,987.7
2023-01-01T07:21:01.635Z,988
2023-01-01T07:22:01.639Z,987.7
2023-01-01T07:23:01.641Z,988
2023-01-01T07:24:01.670Z,988
2023-01-01T07:25:01.660Z,987.5
2023-01-01T07:26:01.644Z,987.5
2023-01-01T07:27:01.649Z,987.5
2023-01-01T07:28:01.645Z,987.5
2023-01-01T07:29:07.988Z,987.5
2023-01-01T07:30:01.668Z,987.5
2023-01-01T07:31:01.682Z,987.5
2023-01-01T07:32:01.649Z,987.5
2023-01-01T07:33:01.671Z,987.5
2023-01-01T07:34:01.675Z,987.3
2023-01-01T07:35:01.663Z,987.1
2023-01-01T07:36:01.695Z,987.1
2023-01-01T07:37:01.667Z,987.5
2023-01-01T07:38:01.671Z,987.5
2023-01-01T07:39:01.663Z,987.5
2023-01-01T07:40:01.657Z,987.3
2023-01-01T07:41:01.674Z,987.3
2023-01-01T07:42:04.904Z,987.3
2023-01-01T07:43:01.680Z,987.5
2023-01-01T07:44:01.665Z,987.5
2023-01-01T07:45:01.668Z,987.5
2023-01-01T07:46:01.746Z,987.3
2023-01-01T07:47:01.662Z,987.5
2023-01-01T07:48:01.684Z,987.1
2023-01-01T07:49:01.690Z,987.1
2023-01-01T07:50:01.669Z,986.9
2023-01-01T07:51:01.695Z,987.3
2023-01-01T07:52:01.680Z,987.3
2023-01-01T07:53:01.690Z,987.1
2023-01-01T07:54:06.575Z,987.1
2023-01-01T07:55:01.677Z,987.1
2023-01-01T07:56:01.692Z,987.3
2023-01-01T07:57:01.678Z,987.1
2023-01-01T07:58:02.479Z,987.1
2023-01-01T07:59:01.692Z,986.9
2023-01-01T08:00:01.679Z,986.9
2023-01-01T08:01:01.769Z,987.1
2023-01-01T08:02:01.789Z,987.1
2023-01-01T08:03:01.859Z,987.1
2023-01-01T08:04:01.699Z,987.1
2023-01-01T08:05:01.720Z,986.7
2023-01-01T08:06:01.685Z,986.7
2023-01-01T08:07:01.687Z,986.7
2023-01-01T08:08:01.700Z,986.7
2023-01-01T08:09:01.701Z,986.9
2023-01-01T08:10:01.721Z,986.7
2023-01-01T08:11:03.795Z,986.2
2023-01-01T08:12:01.700Z,986.4
2023-01-01T08:13:01.710Z,986.7
2023-01-01T08:14:01.713Z,986.4
2023-01-01T08:15:01.700Z,986.2
2023-01-01T08:16:02.610Z,986.4
2023-01-01T08:17:01.695Z,986.7
2023-01-01T08:18:01.726Z,986.4
2023-01-01T08:19:01.718Z,986.2
2023-01-01T08:20:01.696Z,986.4
2023-01-01T08:21:01.708Z,986
2023-01-01T08:22:01.702Z,986.2
2023-01-01T08:23:07.139Z,986.2
2023-01-01T08:24:01.730Z,986.2
2023-01-01T08:25:01.705Z,986.2
2023-01-01T08:26:01.714Z,986.2
2023-01-01T08:27:01.720Z,986.2
2023-01-01T08:28:01.743Z,986.2
2023-01-01T08:29:01.724Z,986.2
2023-01-01T08:30:01.761Z,986
2023-01-01T08:31:01.788Z,985.8
2023-01-01T08:32:00.431Z,985.8
2023-01-01T08:33:00.519Z,985.8
2023-01-01T08:34:00.466Z,985.8
2023-01-01T08:35:00.462Z,985.4
2023-01-01T08:36:00.438Z,985.6
2023-01-01T08:37:00.438Z,985.6
2023-01-01T08:38:00.436Z,985.6
2023-01-01T08:39:00.446Z,985.4
2023-01-01T08:40:00.437Z,985.4
2023-01-01T08:41:00.483Z,985.4
2023-01-01T08:42:00.436Z,985.4
2023-01-01T08:43:00.443Z,985.6
2023-01-01T08:44:00.475Z,985.4
2023-01-01T08:45:00.446Z,985.6
2023-01-01T08:46:00.469Z,985.4
2023-01-01T08:47:00.526Z,985.4
2023-01-01T08:48:00.457Z,985.4
2023-01-01T08:49:00.459Z,985.4
2023-01-01T08:50:00.483Z,985.1
2023-01-01T08:51:00.480Z,985.1
2023-01-01T08:52:00.450Z,985.4
2023-01-01T08:53:00.443Z,985.1
2023-01-01T08:54:00.457Z,985.1
2023-01-01T08:55:00.446Z,984.9
2023-01-01T08:56:00.479Z,984.9
2023-01-01T08:57:00.451Z,984.9
2023-01-01T08:58:00.487Z,984.9
2023-01-01T08:59:04.255Z,984.9
2023-01-01T09:00:00.490Z,984.9
2023-01-01T09:01:00.495Z,984.9
2023-01-01T09:02:00.641Z,984.9
2023-01-01T09:03:00.657Z,984.9
2023-01-01T09:04:00.455Z,984.9
2023-01-01T09:05:00.462Z,984.7
2023-01-01T09:06:00.483Z,984.5
2023-01-01T09:07:00.499Z,984.5
2023-01-01T09:08:00.465Z,984.5
2023-01-01T09:09:00.473Z,984.7
2023-01-01T09:10:00.491Z,984.5
2023-01-01T09:11:00.483Z,984.7
2023-01-01T09:12:00.468Z,984.7
2023-01-01T09:13:00.474Z,984.7
2023-01-01T09:14:00.473Z,984.7
2023-01-01T09:15:00.495Z,984.7
2023-01-01T09:16:00.688Z,984.7
2023-01-01T09:17:00.501Z,984.3
2023-01-01T09:18:00.471Z,984.5
2023-01-01T09:19:00.475Z,984.5
2023-01-01T09:20:00.496Z,984.5
2023-01-01T09:21:00.499Z,984.5
2023-01-01T09:22:00.482Z,984.5
2023-01-01T09:23:05.690Z,984.5
2023-01-01T09:24:00.476Z,984.5
2023-01-01T09:25:00.502Z,984.5
2023-01-01T09:26:00.516Z,984.5
2023-01-01T09:27:00.495Z,984
2023-01-01T09:28:00.485Z,984.3
2023-01-01T09:29:00.502Z,984.3
2023-01-01T09:30:00.524Z,984
2023-01-01T09:31:00.515Z,984
2023-01-01T09:32:00.734Z,984.3
2023-01-01T09:33:00.483Z,983.8
2023-01-01T09:34:00.560Z,984
2023-01-01T09:35:00.504Z,984
2023-01-01T09:36:00.509Z,984
2023-01-01T09:37:00.559Z,984
2023-01-01T09:38:00.492Z,984
2023-01-01T09:39:00.498Z,984.3
2023-01-01T09:40:00.543Z,984
2023-01-01T09:41:00.536Z,984
2023-01-01T09:42:00.543Z,984
2023-01-01T09:43:00.494Z,984
2023-01-01T09:44:00.495Z,984
2023-01-01T09:45:00.508Z,984.3
2023-01-01T09:46:00.594Z,984.3
2023-01-01T09:47:00.503Z,984.3
2023-01-01T09:48:00.503Z,984.3
2023-01-01T09:49:00.513Z,984
2023-01-01T09:50:00.535Z,984
2023-01-01T09:51:00.537Z,984.3
2023-01-01T09:52:00.530Z,984.3
2023-01-01T09:53:00.508Z,984
2023-01-01T09:54:00.527Z,984
2023-01-01T09:55:00.531Z,983.8
2023-01-01T09:56:00.552Z,983.4
2023-01-01T09:57:00.512Z,983.4
2023-01-01T09:58:00.522Z,983.6
2023-01-01T09:59:00.511Z,983.8
2023-01-01T10:00:00.526Z,983.8
2023-01-01T10:01:00.712Z,983.6
2023-01-01T10:02:00.615Z,983.6
2023-01-01T10:03:00.534Z,983.2
2023-01-01T10:04:00.551Z,983.2
2023-01-01T10:05:00.523Z,983.2
2023-01-01T10:06:00.567Z,983.2
2023-01-01T10:07:00.533Z,983.2
2023-01-01T10:08:00.548Z,982.7
2023-01-01T10:09:00.530Z,983
2023-01-01T10:10:00.559Z,983.2
2023-01-01T10:11:00.556Z,983.2
2023-01-01T10:12:00.520Z,983
2023-01-01T10:13:00.550Z,983.2
2023-01-01T10:14:00.527Z,982.5
2023-01-01T10:15:01.145Z,982.3
2023-01-01T10:16:00.555Z,982.3
2023-01-01T10:17:00.570Z,982.1
2023-01-01T10:18:00.555Z,982.3
2023-01-01T10:19:00.556Z,982.7
2023-01-01T10:20:00.537Z,982.3
2023-01-01T10:21:00.572Z,982.3
2023-01-01T10:22:00.541Z,981.9
2023-01-01T10:23:00.560Z,982.5
2023-01-01T10:24:00.583Z,982.7
2023-01-01T10:25:00.567Z,982.7
2023-01-01T10:26:00.565Z,983
2023-01-01T10:27:00.551Z,982.7
2023-01-01T10:28:00.560Z,982.3
2023-01-01T10:29:00.541Z,982.3
2023-01-01T10:30:04.358Z,982.3
2023-01-01T10:31:00.573Z,981.9
2023-01-01T10:32:00.583Z,982.3
2023-01-01T10:33:00.545Z,981.9
2023-01-01T10:34:00.576Z,981.7
2023-01-01T10:35:00.543Z,981.7
2023-01-01T10:36:00.563Z,980.8
2023-01-01T10:37:00.570Z,981
2023-01-01T10:38:00.586Z,980.6
2023-01-01T10:39:00.565Z,980.1
2023-01-01T10:40:00.596Z,980.4
2023-01-01T10:41:00.576Z,980.4
2023-01-01T10:42:00.560Z,980.1
2023-01-01T10:43:01.090Z,979.7
2023-01-01T10:44:00.572Z,980.1
2023-01-01T10:45:00.575Z,980.1
2023-01-01T10:46:00.617Z,980.1
2023-01-01T10:47:00.567Z,979.9
2023-01-01T10:48:00.595Z,979.7
2023-01-01T10:49:00.583Z,979.7
2023-01-01T10:50:00.589Z,979.3
2023-01-01T10:51:00.595Z,978.8
2023-01-01T10:52:00.585Z,979
2023-01-01T10:53:00.581Z,979.7
2023-01-01T10:54:00.568Z,979.3
2023-01-01T10:55:00.610Z,979.5
2023-01-01T10:56:00.593Z,979.7
2023-01-01T10:57:00.573Z,979.7
2023-01-01T10:58:00.589Z,979.7
2023-01-01T10:59:00.574Z,979.9
2023-01-01T11:00:00.817Z,979.9
2023-01-01T11:01:00.890Z,979.7
2023-01-01T11:02:00.783Z,979.7
2023-01-01T11:03:00.687Z,979.7
2023-01-01T11:04:00.662Z,979.5
2023-01-01T11:05:04.201Z,979.9
2023-01-01T11:06:00.613Z,980.1
2023-01-01T11:07:00.583Z,979.7
2023-01-01T11:08:00.604Z,979.3
2023-01-01T11:09:00.606Z,979.3
2023-01-01T11:10:03.609Z,979.7
2023-01-01T11:11:00.612Z,980.4
2023-01-01T11:12:05.656Z,979.3
2023-01-01T11:13:05.654Z,978.8
2023-01-01T11:14:00.598Z,978.8
2023-01-01T11:15:00.638Z,978.8
2023-01-01T11:16:00.605Z,979
2023-01-01T11:17:00.715Z,978.6
2023-01-01T11:18:00.612Z,978.8
2023-01-01T11:19:00.610Z,978.8
2023-01-01T11:20:02.414Z,978.4
2023-01-01T11:21:00.623Z,978.4
2023-01-01T11:22:00.607Z,978.4
2023-01-01T11:23:00.605Z,978.8
2023-01-01T11:24:00.609Z,978.8
2023-01-01T11:25:00.676Z,978.6
2023-01-01T11:26:00.633Z,978.4
2023-01-01T11:27:00.604Z,978
2023-01-01T11:28:00.617Z,977.5
2023-01-01T11:29:00.627Z,978
2023-01-01T11:30:00.752Z,978
2023-01-01T11:31:00.706Z,977.7
2023-01-01T11:32:00.832Z,978
2023-01-01T11:33:00.653Z,978
2023-01-01T11:34:00.642Z,977.5
2023-01-01T11:35:00.624Z,976.9
2023-01-01T11:36:00.635Z,977.1
2023-01-01T11:37:00.650Z,976.7
2023-01-01T11:38:00.677Z,976.4
2023-01-01T11:39:00.631Z,976.9
2023-01-01T11:40:00.754Z,976.2
2023-01-01T11:41:00.636Z,976
2023-01-01T11:42:00.789Z,975.8
2023-01-01T11:43:00.639Z,976
2023-01-01T11:44:00.619Z,976.2
2023-01-01T11:45:00.633Z,976.4
2023-01-01T11:46:00.702Z,975.4
2023-01-01T11:47:00.649Z,975.8
2023-01-01T11:48:00.652Z,976.2
2023-01-01T11:49:00.629Z,976.2
2023-01-01T11:50:00.659Z,975.6
2023-01-01T11:51:00.643Z,976.2
2023-01-01T11:52:00.800Z,976
2023-01-01T11:53:00.765Z,974.9
2023-01-01T11:54:00.811Z,975.6
2023-01-01T11:55:00.867Z,976
2023-01-01T11:56:00.905Z,975.4
2023-01-01T11:57:00.819Z,975.6
2023-01-01T11:58:00.817Z,975.4
2023-01-01T11:59:00.970Z,974.9
2023-01-01T12:00:01.129Z,975.4
2023-01-01T12:01:00.930Z,974.7
2023-01-01T12:02:00.650Z,974.5
2023-01-01T12:03:00.867Z,974.5
2023-01-01T12:04:00.863Z,973.6
2023-01-01T12:05:00.908Z,974.3
2023-01-01T12:06:00.749Z,974.5
2023-01-01T12:07:00.830Z,974.9
2023-01-01T12:08:00.886Z,974
2023-01-01T12:09:00.677Z,973.8
2023-01-01T12:10:00.741Z,974.3
2023-01-01T12:11:00.680Z,974.5
2023-01-01T12:12:00.663Z,974.3
2023-01-01T12:13:00.659Z,974.5
2023-01-01T12:14:00.745Z,974
2023-01-01T12:15:00.687Z,974.5
2023-01-01T12:16:00.801Z,974.5
2023-01-01T12:17:00.665Z,974.5
2023-01-01T12:18:00.668Z,974
2023-01-01T12:19:00.805Z,974
2023-01-01T12:20:00.705Z,973.6
2023-01-01T12:21:00.728Z,974
2023-01-01T12:22:00.657Z,974.5
2023-01-01T12:23:00.669Z,974.5
2023-01-01T12:24:00.779Z,973.8
2023-01-01T12:25:00.689Z,973.4
2023-01-01T12:26:00.698Z,973.6
2023-01-01T12:27:05.256Z,973.6
2023-01-01T12:28:00.668Z,973.2
2023-01-01T12:29:00.679Z,974
2023-01-01T12:30:00.764Z,974.5
2023-01-01T12:31:00.771Z,974.5
2023-01-01T12:32:00.675Z,973.6
2023-01-01T12:33:07.283Z,973.6
2023-01-01T12:34:00.676Z,973.6
2023-01-01T12:35:00.681Z,973.6
2023-01-01T12:36:00.748Z,974
2023-01-01T12:37:00.722Z,973
2023-01-01T12:38:00.682Z,972.7
2023-01-01T12:39:00.686Z,973.2
2023-01-01T12:40:00.744Z,972.7
2023-01-01T12:41:00.708Z,973
2023-01-01T12:42:00.685Z,973.2
2023-01-01T12:43:00.697Z,973.2
2023-01-01T12:44:00.773Z,972.7
2023-01-01T12:45:00.707Z,973.2
2023-01-01T12:46:00.752Z,972.3
2023-01-01T12:47:00.693Z,972.5
2023-01-01T12:48:00.714Z,971.9
2023-01-01T12:49:00.743Z,972.1
2023-01-01T12:50:00.752Z,972.3
2023-01-01T12:51:05.199Z,972.3
2023-01-01T12:52:00.692Z,972.3
2023-01-01T12:53:00.704Z,972.3
2023-01-01T12:54:00.719Z,972.7
2023-01-01T12:55:00.711Z,972.3
2023-01-01T12:56:00.724Z,971.9
2023-01-01T12:57:00.702Z,971.7
2023-01-01T12:58:00.699Z,972.3
2023-01-01T12:59:00.730Z,971.9
2023-01-01T13:00:00.748Z,971.7